createdAt,value
2023-07-04T00:02:27.360Z,17.65
2023-07-04T00:05:31.689Z,17.68
2023-07-04T00:08:35.991Z,17.61
2023-07-04T00:11:40.144Z,17.62
2023-07-04T00:14:45.686Z,17.65
2023-07-04T00:17:51.329Z,17.66
2023-07-04T00:20:57.915Z,17.67
2023-07-04T00:24:02.745Z,17.65
2023-07-04T00:27:07.220Z,17.61
2023-07-04T00:30:13.519Z,17.59
2023-07-04T00:33:17.933Z,17.60
2023-07-04T00:36:22.603Z,17.63
2023-07-04T00:39:27.571Z,17.70
2023-07-04T00:42:35.312Z,17.65
2023-07-04T00:45:49.317Z,17.70
2023-07-04T00:48:55.210Z,17.60
2023-07-04T00:52:05.943Z,17.63
2023-07-04T00:55:11.963Z,17.69
2023-07-04T00:58:16.719Z,17.63
2023-07-04T01:01:20.941Z,17.74
2023-07-04T01:04:25.228Z,17.65
2023-07-04T01:07:42.464Z,17.65
2023-07-04T01:10:48.169Z,17.60
2023-07-04T01:13:52.807Z,17.58
2023-07-04T01:16:57.691Z,17.58
2023-07-04T01:20:02.943Z,17.52
2023-07-04T01:23:18.132Z,17.51
2023-07-04T01:26:34.514Z,17.43
2023-07-04T01:29:38.840Z,17.45
2023-07-04T01:32:44.306Z,17.49
2023-07-04T01:35:48.708Z,17.40
2023-07-04T01:38:53.718Z,17.39
2023-07-04T01:41:57.966Z,17.34
2023-07-04T01:45:05.184Z,17.37
2023-07-04T01:48:09.213Z,17.36
2023-07-04T01:51:13.071Z,17.27
2023-07-04T01:54:19.847Z,17.28
2023-07-04T01:57:24.746Z,17.28
2023-07-04T02:00:28.440Z,17.26
2023-07-04T02:03:32.680Z,17.25
2023-07-04T02:06:36.802Z,17.23
2023-07-04T02:09:42.334Z,17.23
2023-07-04T02:12:46.486Z,17.27
2023-07-04T02:15:50.600Z,17.26
2023-07-04T02:18:57.562Z,17.28
2023-07-04T02:22:02.763Z,17.29
2023-07-04T02:25:06.791Z,17.36
2023-07-04T02:28:11.946Z,17.35
2023-07-04T02:31:16.589Z,17.35
2023-07-04T02:34:20.552Z,17.41
2023-07-04T02:37:24.526Z,17.41
2023-07-04T02:40:28.414Z,17.43
2023-07-04T02:43:32.988Z,17.44
2023-07-04T02:46:36.968Z,17.44
2023-07-04T02:49:40.986Z,17.42
2023-07-04T02:52:45.145Z,17.39
2023-07-04T02:55:50.971Z,17.32
2023-07-04T02:58:55.322Z,17.30
2023-07-04T03:01:59.695Z,17.32
2023-07-04T03:05:04.008Z,17.33
2023-07-04T03:08:09.165Z,17.38
2023-07-04T03:11:13.650Z,17.36
2023-07-04T03:14:17.517Z,17.35
2023-07-04T03:17:22.145Z,17.31
2023-07-04T03:20:26.255Z,17.35
2023-07-04T03:23:30.070Z,17.37
2023-07-04T03:26:37.140Z,17.35
2023-07-04T03:29:41.438Z,17.34
2023-07-04T03:32:45.738Z,17.30
2023-07-04T03:35:58.629Z,17.30
2023-07-04T03:39:04.908Z,17.31
2023-07-04T03:42:08.929Z,17.32
2023-07-04T03:45:13.186Z,17.34
2023-07-04T03:48:17.550Z,17.35
2023-07-04T03:51:21.597Z,17.31
2023-07-04T03:54:25.875Z,17.36
2023-07-04T03:57:30.188Z,17.40
2023-07-04T04:00:34.468Z,17.33
2023-07-04T04:03:39.685Z,17.33
2023-07-04T04:06:43.708Z,17.30
2023-07-04T04:09:47.994Z,17.33
2023-07-04T04:12:52.323Z,17.35
2023-07-04T04:15:56.514Z,17.42
2023-07-04T04:19:00.822Z,17.46
2023-07-04T04:22:05.182Z,17.55
2023-07-04T04:25:09.780Z,17.64
2023-07-04T04:28:14.124Z,17.70
2023-07-04T04:31:18.666Z,17.74
2023-07-04T04:34:23.916Z,17.82
2023-07-04T04:37:27.584Z,17.85
2023-07-04T04:40:33.606Z,17.92
2023-07-04T04:43:37.634Z,18.01
2023-07-04T04:46:45.951Z,18.08
2023-07-04T04:49:51.998Z,18.25
2023-07-04T04:52:59.321Z,18.25
2023-07-04T04:56:05.317Z,18.37
2023-07-04T04:59:09.710Z,18.39
2023-07-04T05:02:13.916Z,18.43
2023-07-04T05:05:18.348Z,18.48
2023-07-04T05:08:22.123Z,18.56
2023-07-04T05:11:26.417Z,18.61
2023-07-04T05:14:30.563Z,18.68
2023-07-04T05:17:34.521Z,18.73
2023-07-04T05:20:38.687Z,18.76
2023-07-04T05:23:44.596Z,18.78
2023-07-04T05:26:49.365Z,18.88
2023-07-04T05:29:53.276Z,19.37
2023-07-04T05:32:57.271Z,20.02
2023-07-04T05:36:20.558Z,20.26
2023-07-04T05:39:25.180Z,20.98
2023-07-04T05:42:30.359Z,21.19
2023-07-04T05:45:34.652Z,21.48
2023-07-04T05:48:39.118Z,21.92
2023-07-04T05:51:43.225Z,21.94
2023-07-04T05:54:49.221Z,21.94
2023-07-04T05:57:53.079Z,22.00
2023-07-04T06:01:00.199Z,21.91
2023-07-04T06:04:05.602Z,21.98
2023-07-04T06:07:09.918Z,21.97
2023-07-04T06:10:14.236Z,22.08
2023-07-04T06:13:18.181Z,21.83
2023-07-04T06:16:23.173Z,21.65
2023-07-04T06:19:27.536Z,21.65
2023-07-04T06:22:33.521Z,21.72
2023-07-04T06:25:37.783Z,22.01
2023-07-04T06:28:43.155Z,22.12
2023-07-04T06:31:49.746Z,22.08
2023-07-04T06:34:53.822Z,22.13
2023-07-04T06:37:58.386Z,22.37
2023-07-04T06:41:04.480Z,22.47
2023-07-04T06:44:08.811Z,22.74
2023-07-04T06:47:13.060Z,22.68
2023-07-04T06:50:17.106Z,22.42
2023-07-04T06:53:22.226Z,22.40
2023-07-04T06:56:26.548Z,22.36
2023-07-04T06:59:30.975Z,22.33
2023-07-04T07:02:35.592Z,22.41
2023-07-04T07:05:41.364Z,22.44
2023-07-04T07:08:45.203Z,22.58
2023-07-04T07:11:49.353Z,22.74
2023-07-04T07:14:53.443Z,22.87
2023-07-04T07:17:57.355Z,23.12
2023-07-04T07:21:02.892Z,23.43
2023-07-04T07:27:11.803Z,23.59
2023-07-04T07:30:15.906Z,23.70
2023-07-04T07:33:20.246Z,24.19
2023-07-04T07:36:39.011Z,24.59
2023-07-04T07:39:43.870Z,25.21
2023-07-04T07:42:48.196Z,25.73
2023-07-04T07:45:52.468Z,25.56
2023-07-04T07:48:57.048Z,25.23
2023-07-04T07:52:03.648Z,25.07
2023-07-04T07:55:09.063Z,24.99
2023-07-04T07:58:13.159Z,26.05
2023-07-04T08:01:30.284Z,27.23
2023-07-04T08:04:34.598Z,28.13
2023-07-04T08:07:38.578Z,28.76
2023-07-04T08:10:43.961Z,29.46
2023-07-04T08:13:48.994Z,29.72
2023-07-04T08:16:54.964Z,29.87
2023-07-04T08:19:59.145Z,29.97
2023-07-04T08:23:03.674Z,29.86
2023-07-04T08:26:07.866Z,29.64
2023-07-04T08:29:12.534Z,29.30
2023-07-04T08:32:19.060Z,29.39
2023-07-04T08:35:23.495Z,28.62
2023-07-04T08:38:28.326Z,29.15
2023-07-04T08:41:54.299Z,29.29
2023-07-04T08:45:00.070Z,29.66
2023-07-04T08:48:05.153Z,29.30
2023-07-04T08:51:12.012Z,29.26
2023-07-04T08:54:16.320Z,29.78
2023-07-04T08:57:20.341Z,29.72
2023-07-04T09:00:37.586Z,29.56
2023-07-04T09:03:45.832Z,29.24
2023-07-04T09:07:03.548Z,29.33
2023-07-04T09:10:22.248Z,28.59
2023-07-04T09:13:35.339Z,28.57
2023-07-04T09:16:42.511Z,27.99
2023-07-04T09:19:47.897Z,27.78
2023-07-04T09:22:51.849Z,27.32
2023-07-04T09:25:57.775Z,27.40
2023-07-04T09:29:02.468Z,27.25
2023-07-04T09:32:08.405Z,26.89
2023-07-04T09:35:13.086Z,26.35
2023-07-04T09:38:17.403Z,25.96
2023-07-04T09:41:26.713Z,25.86
2023-07-04T09:44:34.800Z,25.45
2023-07-04T09:47:45.788Z,25.33
2023-07-04T09:50:50.204Z,25.45
2023-07-04T09:54:12.600Z,25.31
2023-07-04T09:57:22.591Z,25.11
2023-07-04T10:00:27.840Z,25.03
2023-07-04T10:03:32.182Z,24.97
2023-07-04T10:06:39.494Z,24.86
2023-07-04T10:09:53.026Z,24.89
2023-07-04T10:12:57.707Z,24.95
2023-07-04T10:16:01.551Z,24.96
2023-07-04T10:19:17.782Z,25.17
2023-07-04T10:22:27.013Z,25.22
2023-07-04T10:25:31.349Z,25.13
2023-07-04T10:28:36.355Z,24.81
2023-07-04T10:31:41.654Z,24.88
2023-07-04T10:34:48.809Z,24.85
2023-07-04T10:37:58.908Z,25.09
2023-07-04T10:41:24.795Z,25.26
2023-07-04T10:44:31.913Z,25.05
2023-07-04T10:47:39.104Z,24.74
2023-07-04T10:50:51.432Z,24.92
2023-07-04T10:53:55.389Z,25.17
2023-07-04T10:57:11.284Z,25.17
2023-07-04T11:00:29.514Z,25.16
2023-07-04T11:03:40.456Z,25.01
2023-07-04T11:06:53.618Z,25.27
2023-07-04T11:10:03.009Z,25.56
2023-07-04T11:13:08.301Z,25.77
2023-07-04T11:16:13.263Z,25.68
2023-07-04T11:19:23.416Z,25.49
2023-07-04T11:23:03.975Z,25.27
2023-07-04T11:26:09.675Z,25.25
2023-07-04T11:29:19.824Z,25.34
2023-07-04T11:32:32.951Z,25.34
2023-07-04T11:35:37.908Z,25.51
2023-07-04T11:38:44.211Z,25.61
2023-07-04T11:41:49.841Z,25.72
2023-07-04T11:45:02.185Z,25.52
2023-07-04T11:48:12.118Z,25.54
2023-07-04T11:51:18.543Z,25.62
2023-07-04T11:54:25.875Z,25.66
2023-07-04T11:58:02.907Z,25.46
2023-07-04T12:01:07.690Z,25.50
2023-07-04T12:04:14.083Z,25.57
2023-07-04T12:07:27.891Z,25.24
2023-07-04T12:10:31.873Z,25.09
2023-07-04T12:13:40.611Z,25.31
2023-07-04T12:16:48.083Z,25.31
2023-07-04T12:20:01.539Z,25.41
2023-07-04T12:23:10.648Z,25.48
2023-07-04T12:26:19.703Z,25.24
2023-07-04T12:32:52.393Z,25.42
2023-07-04T12:36:03.048Z,25.57
2023-07-04T12:39:08.526Z,25.58
2023-07-04T12:42:32.490Z,25.70
2023-07-04T12:45:37.224Z,25.74
2023-07-04T12:51:50.079Z,25.61
2023-07-04T12:54:54.683Z,25.47
2023-07-04T12:58:00.250Z,25.47
2023-07-04T13:01:06.520Z,25.55
2023-07-04T13:04:12.064Z,25.76
2023-07-04T13:07:23.769Z,25.60
2023-07-04T13:10:36.197Z,25.46
2023-07-04T13:13:45.617Z,25.37
2023-07-04T13:16:49.823Z,25.48
2023-07-04T13:19:54.098Z,25.54
2023-07-04T13:26:27.703Z,25.57
2023-07-04T13:35:50.557Z,25.84
2023-07-04T13:39:50.177Z,25.91
2023-07-04T13:42:18.901Z,25.83
2023-07-04T13:45:22.864Z,25.74
2023-07-04T13:48:26.779Z,25.86
2023-07-04T13:51:32.393Z,26.01
2023-07-04T13:54:37.366Z,26.07
2023-07-04T13:57:41.658Z,26.16
2023-07-04T14:06:59.526Z,26.27
2023-07-04T14:10:04.021Z,26.33
2023-07-04T14:13:08.337Z,26.37
2023-07-04T14:22:32.292Z,25.66
2023-07-04T14:25:36.196Z,25.75
2023-07-04T14:28:40.008Z,25.85
2023-07-04T14:31:44.323Z,25.66
2023-07-04T14:34:48.424Z,25.59
2023-07-04T14:37:52.672Z,25.64
2023-07-04T14:44:03.996Z,25.81
2023-07-04T14:47:08.076Z,25.63
2023-07-04T14:50:12.118Z,25.48
2023-07-04T14:53:16.291Z,25.34
2023-07-04T14:56:20.598Z,25.37
2023-07-04T14:59:24.641Z,25.28
2023-07-04T15:02:28.492Z,25.30
2023-07-04T15:05:32.683Z,25.52
2023-07-04T15:08:36.916Z,25.65
2023-07-04T15:11:41.734Z,25.62
2023-07-04T15:14:45.908Z,25.55
2023-07-04T15:17:50.636Z,25.51
2023-07-04T15:20:54.716Z,25.49
2023-07-04T15:23:58.688Z,25.53
2023-07-04T15:27:03.381Z,25.59
2023-07-04T15:30:08.430Z,25.53
2023-07-04T15:33:12.398Z,25.51
2023-07-04T15:36:16.394Z,25.51
2023-07-04T15:39:20.611Z,25.51
2023-07-04T15:42:24.979Z,25.52
2023-07-04T15:45:31.545Z,25.55
2023-07-04T15:48:36.514Z,25.50
2023-07-04T15:51:40.806Z,25.45
2023-07-04T15:54:44.847Z,25.40
2023-07-04T15:57:48.845Z,25.38
2023-07-04T16:00:56.661Z,25.33
2023-07-04T16:04:01.492Z,25.37
2023-07-04T16:07:06.572Z,25.29
2023-07-04T16:10:10.558Z,25.26
2023-07-04T16:13:14.782Z,25.39
2023-07-04T16:16:19.421Z,25.22
2023-07-04T16:19:24.788Z,25.20
2023-07-04T16:22:29.272Z,25.12
2023-07-04T16:25:34.870Z,25.08
2023-07-04T16:28:39.882Z,25.11
2023-07-04T16:31:44.031Z,25.11
2023-07-04T16:34:48.209Z,25.01
2023-07-04T16:37:52.114Z,24.98
2023-07-04T16:40:56.779Z,24.99
2023-07-04T16:44:00.777Z,24.95
2023-07-04T16:47:05.143Z,24.88
2023-07-04T16:50:25.552Z,24.83
2023-07-04T16:53:33.729Z,24.76
2023-07-04T16:56:38.181Z,24.81
2023-07-04T16:59:42.293Z,24.70
2023-07-04T17:02:46.418Z,24.69
2023-07-04T17:05:51.127Z,24.68
2023-07-04T17:08:55.397Z,24.70
2023-07-04T17:12:00.025Z,24.74
2023-07-04T17:15:04.969Z,24.70
2023-07-04T17:18:09.238Z,24.56
2023-07-04T17:21:12.919Z,24.55
2023-07-04T17:24:17.464Z,24.52
2023-07-04T17:27:21.639Z,24.46
2023-07-04T17:30:26.017Z,24.36
2023-07-04T17:33:30.556Z,24.28
2023-07-04T17:36:35.399Z,24.23
2023-07-04T17:39:39.616Z,24.20
2023-07-04T17:42:43.607Z,24.17
2023-07-04T17:45:51.019Z,24.07
2023-07-04T17:48:55.528Z,24.06
2023-07-04T17:51:59.674Z,23.98
2023-07-04T17:55:03.950Z,23.93
2023-07-04T17:58:08.362Z,23.89
2023-07-04T18:01:17.189Z,23.87
2023-07-04T18:04:22.700Z,23.75
2023-07-04T18:07:27.120Z,23.66
2023-07-04T18:10:31.683Z,23.65
2023-07-04T18:13:36.741Z,23.57
2023-07-04T18:16:42.058Z,23.51
2023-07-04T18:19:48.274Z,23.46
2023-07-04T18:22:52.657Z,23.33
2023-07-04T18:25:56.819Z,23.32
2023-07-04T18:29:01.946Z,23.22
2023-07-04T18:32:06.305Z,23.14
2023-07-04T18:35:11.436Z,23.10
2023-07-04T18:38:15.195Z,23.03
2023-07-04T18:41:22.100Z,22.99
2023-07-04T18:44:26.040Z,22.99
2023-07-04T18:47:30.479Z,22.92
2023-07-04T18:50:35.851Z,22.85
2023-07-04T18:53:40.559Z,22.77
2023-07-04T18:56:46.297Z,22.69
2023-07-04T18:59:53.912Z,22.57
2023-07-04T19:02:58.488Z,22.54
2023-07-04T19:06:04.124Z,22.35
2023-07-04T19:09:10.635Z,22.26
2023-07-04T19:12:14.756Z,22.09
2023-07-04T19:15:19.515Z,22.00
2023-07-04T19:18:24.639Z,21.95
2023-07-04T19:21:29.160Z,21.81
2023-07-04T19:24:34.424Z,21.74
2023-07-04T19:27:38.493Z,21.68
2023-07-04T19:30:44.319Z,21.60
2023-07-04T19:33:48.185Z,21.55
2023-07-04T19:36:54.845Z,21.47
2023-07-04T19:39:58.954Z,21.39
2023-07-04T19:43:02.964Z,21.31
2023-07-04T19:46:08.448Z,21.24
2023-07-04T19:49:15.247Z,21.18
2023-07-04T19:52:19.246Z,21.14
2023-07-04T19:55:23.160Z,21.13
2023-07-04T19:58:27.262Z,21.09
2023-07-04T20:01:34.194Z,21.04
2023-07-04T20:04:38.665Z,21.04
2023-07-04T20:07:42.681Z,21.03
2023-07-04T20:10:47.352Z,20.98
2023-07-04T20:13:51.940Z,20.90
2023-07-04T20:16:55.664Z,20.83
2023-07-04T20:19:59.756Z,20.76
2023-07-04T20:23:05.967Z,20.73
2023-07-04T20:26:18.256Z,20.70
2023-07-04T20:29:24.823Z,20.70
2023-07-04T20:32:28.791Z,20.65
2023-07-04T20:35:34.159Z,20.60
2023-07-04T20:38:38.074Z,20.52
2023-07-04T20:41:42.097Z,20.52
2023-07-04T20:44:46.319Z,20.50
2023-07-04T20:47:51.169Z,20.44
2023-07-04T20:50:57.361Z,20.36
2023-07-04T20:54:01.168Z,20.39
2023-07-04T20:57:05.344Z,20.34
2023-07-04T21:00:15.801Z,20.26
2023-07-04T21:03:21.686Z,20.22
2023-07-04T21:06:26.004Z,20.20
2023-07-04T21:09:30.346Z,20.21
2023-07-04T21:12:34.678Z,20.18
2023-07-04T21:15:38.940Z,20.21
2023-07-04T21:18:43.517Z,20.15
2023-07-04T21:21:47.824Z,20.08
2023-07-04T21:24:52.114Z,20.08
2023-07-04T21:27:56.040Z,20.09
2023-07-04T21:31:08.335Z,20.06
2023-07-04T21:34:12.746Z,20.00
2023-07-04T21:37:17.170Z,20.03
2023-07-04T21:40:21.296Z,20.00
2023-07-04T21:43:25.546Z,20.04
2023-07-04T21:46:29.892Z,19.88
2023-07-04T21:49:38.616Z,19.90
2023-07-04T21:52:42.581Z,19.89
2023-07-04T21:55:46.994Z,19.80
2023-07-04T21:58:50.756Z,19.74
2023-07-04T22:01:55.259Z,19.76
2023-07-04T22:04:59.244Z,19.80
2023-07-04T22:08:03.435Z,19.75
2023-07-04T22:11:10.903Z,19.68
2023-07-04T22:14:23.718Z,19.64
2023-07-04T22:17:39.285Z,19.56
2023-07-04T22:20:45.148Z,19.49
2023-07-04T22:23:49.810Z,19.44
2023-07-04T22:26:54.237Z,19.35
2023-07-04T22:29:58.355Z,19.31
2023-07-04T22:33:02.401Z,19.18
2023-07-04T22:36:06.525Z,19.18
2023-07-04T22:39:10.395Z,19.13
2023-07-04T22:42:14.703Z,19.17
2023-07-04T22:45:19.045Z,19.16
2023-07-04T22:48:25.075Z,19.16
2023-07-04T22:51:28.933Z,19.12
2023-07-04T22:54:34.218Z,19.11
2023-07-04T22:57:38.225Z,19.20
2023-07-04T23:00:42.885Z,19.03
2023-07-04T23:03:48.732Z,19.01
2023-07-04T23:06:52.974Z,18.97
2023-07-04T23:09:57.085Z,19.00
2023-07-04T23:13:01.185Z,19.00
2023-07-04T23:16:11.164Z,19.02
2023-07-04T23:19:15.300Z,19.00
2023-07-04T23:22:19.772Z,19.02
2023-07-04T23:25:24.155Z,19.02
2023-07-04T23:28:28.223Z,18.94
2023-07-04T23:31:32.401Z,18.90
2023-07-04T23:34:36.336Z,18.93
2023-07-04T23:37:40.372Z,18.91
2023-07-04T23:40:44.780Z,18.79
2023-07-04T23:43:48.946Z,18.77
2023-07-04T23:46:53.297Z,18.75
2023-07-04T23:49:57.400Z,18.75
2023-07-04T23:53:01.586Z,18.70
2023-07-04T23:56:06.126Z,18.64
2023-07-04T23:59:10.120Z,18.59
